Time;durP1;ratioP1;P1;durP2;ratioP2;P2;SDS_P1;SDS_P2;PMS_P1;PMS_P2;Temp;Humidity;BMP_temperature;BMP_pressure;BME280_temperature;BME280_humidity;BME280_pressure;Samples;Min_cycle;Max_cycle;Signal;HPM_P1;HPM_P2
2021/05/23 00:02:12;;;;;;;0.40;0.40;;;;;;;8.29;66.14;95238.25;5049205;28;20205;-75
2021/05/23 00:04:38;;;;;;;0.87;0.40;;;;;;;8.33;65.57;95237.03;5037349;28;20184;-75
2021/05/23 00:07:04;;;;;;;1.97;0.50;;;;;;;8.36;65.86;95240.19;5054021;28;20202;-75
2021/05/23 00:09:30;;;;;;;1.87;0.50;;;;;;;8.39;65.54;95244.25;5053986;28;20178;-75
2021/05/23 00:11:55;;;;;;;2.17;0.40;;;;;;;8.36;65.54;95241.97;5052812;28;20224;-74
2021/05/23 00:14:21;;;;;;;1.20;0.70;;;;;;;8.29;66.01;95244.25;5036178;28;20193;-75
2021/05/23 00:16:47;;;;;;;0.50;0.50;;;;;;;8.35;65.68;95237.75;5053755;28;20177;-75
2021/05/23 00:19:13;;;;;;;1.60;0.80;;;;;;;8.30;65.78;95235.53;5053785;28;20511;-75
2021/05/23 00:21:39;;;;;;;1.20;0.60;;;;;;;8.26;65.77;95238.56;5054428;28;20204;-75
2021/05/23 00:24:05;;;;;;;1.77;0.50;;;;;;;8.24;66.36;95230.94;5052632;28;20594;-74
2021/05/23 00:26:31;;;;;;;0.83;0.53;;;;;;;8.22;66.43;95232.84;5053542;28;20699;-74
2021/05/23 00:28:57;;;;;;;1.63;0.60;;;;;;;8.21;66.79;95232.00;5053592;28;20235;-75
2021/05/23 00:31:22;;;;;;;2.20;0.63;;;;;;;8.27;67.06;95229.84;5053249;28;20600;-74
2021/05/23 00:33:47;;;;;;;1.43;0.50;;;;;;;8.33;67.66;95231.88;5051337;28;20210;-74
2021/05/23 00:36:12;;;;;;;0.60;0.50;;;;;;;8.33;68.97;95237.03;5036365;28;20587;-74
2021/05/23 00:38:39;;;;;;;1.57;0.47;;;;;;;8.23;69.44;95245.66;5054624;28;20224;-74
2021/05/23 00:41:05;;;;;;;1.57;0.50;;;;;;;8.27;69.67;95229.84;5053116;28;20181;-75
2021/05/23 00:43:30;;;;;;;1.00;0.60;;;;;;;8.22;69.65;95236.25;5052271;28;20233;-74
2021/05/23 00:45:56;;;;;;;1.90;0.70;;;;;;;8.20;69.91;95222.63;5069600;28;20849;-74
2021/05/23 00:48:22;;;;;;;1.10;0.60;;;;;;;8.16;70.21;95226.47;5032991;28;20693;-74
2021/05/23 00:50:47;;;;;;;1.53;0.40;;;;;;;8.18;70.04;95221.97;5035880;28;20188;-75
2021/05/23 00:53:13;;;;;;;1.33;0.50;;;;;;;8.20;70.10;95222.63;5054235;28;20209;-75
2021/05/23 00:55:39;;;;;;;1.07;0.80;;;;;;;8.17;70.08;95230.69;5051640;28;20323;-76
2021/05/23 00:58:06;;;;;;;0.93;0.60;;;;;;;8.20;69.89;95229.56;5054254;28;20204;-74
2021/05/23 01:00:41;;;;;;;2.00;0.90;;;;;;;8.14;69.73;95227.56;5036106;28;20182;-74
2021/05/23 01:03:25;;;;;;;3.30;0.87;;;;;;;8.17;69.87;95238.44;5053886;28;20281;-74
2021/05/23 01:06:11;;;;;;;1.03;0.63;;;;;;;8.14;70.00;95236.16;5053057;28;20182;-74
2021/05/23 01:08:38;;;;;;;1.37;0.70;;;;;;;8.11;70.39;95246.75;5047815;28;20216;-74
2021/05/23 01:11:04;;;;;;;2.10;0.70;;;;;;;8.15;70.50;95237.78;5035832;28;20185;-74
2021/05/23 01:13:36;;;;;;;0.60;0.40;;;;;;;8.11;70.05;95241.56;5051933;28;20194;-75
2021/05/23 01:16:19;;;;;;;0.70;0.70;;;;;;;8.10;70.39;95245.13;5052751;28;20190;-75
2021/05/23 01:18:54;;;;;;;2.67;0.70;;;;;;;8.13;70.07;95244.03;5052513;28;20257;-75
2021/05/23 01:21:22;;;;;;;2.73;0.67;;;;;;;8.13;70.26;95257.78;5052169;28;20612;-75
2021/05/23 01:23:53;;;;;;;1.07;0.80;;;;;;;8.11;69.84;95251.09;5052425;28;20197;-75
2021/05/23 01:26:19;;;;;;;2.93;0.70;;;;;;;8.12;69.95;95250.16;5051411;28;21609;-74
2021/05/23 01:28:48;;;;;;;0.50;0.50;;;;;;;8.15;70.10;95262.81;5085775;28;20289;-75
2021/05/23 01:31:18;;;;;;;1.37;0.90;;;;;;;8.15;70.01;95262.81;5052212;28;20638;-75
2021/05/23 01:33:49;;;;;;;3.17;1.20;;;;;;;8.17;70.07;95266.88;5035616;28;20202;-75
2021/05/23 01:36:14;;;;;;;2.53;1.17;;;;;;;8.19;70.07;95266.75;5052285;28;20638;-74
2021/05/23 01:38:40;;;;;;;2.97;1.00;;;;;;;8.15;70.34;95289.50;5051231;28;20239;-74
2021/05/23 01:41:08;;;;;;;1.50;0.67;;;;;;;8.17;69.63;95292.75;5035170;28;20189;-75
2021/05/23 01:43:35;;;;;;;1.50;1.00;;;;;;;8.16;70.52;95303.25;5052060;28;20194;-75
2021/05/23 01:46:01;;;;;;;2.00;0.97;;;;;;;8.15;70.75;95305.03;5035472;28;20186;-75
2021/05/23 01:48:26;;;;;;;1.70;1.00;;;;;;;8.14;70.93;95307.75;5034193;28;20209;-75
2021/05/23 01:50:52;;;;;;;3.53;1.37;;;;;;;8.02;71.60;95325.16;5050766;28;20200;-75
2021/05/23 01:53:17;;;;;;;1.13;0.83;;;;;;;8.05;71.69;95324.91;5051527;28;20243;-75
2021/05/23 01:55:43;;;;;;;0.80;0.70;;;;;;;7.91;72.63;95322.72;5053139;28;20170;-75
2021/05/23 01:58:09;;;;;;;2.57;0.80;;;;;;;7.92;72.60;95324.34;5050863;28;20189;-75
2021/05/23 02:00:40;;;;;;;2.90;0.93;;;;;;;7.74;74.37;95326.81;5034692;28;20272;-76
2021/05/23 02:03:08;;;;;;;1.63;1.00;;;;;;;7.56;74.84;95326.66;5051466;28;20213;-76
2021/05/23 02:05:36;;;;;;;1.07;0.60;;;;;;;7.31;76.00;95322.00;5052938;28;20644;-75
2021/05/23 02:08:02;;;;;;;2.93;1.00;;;;;;;7.19;76.69;95325.66;5051493;28;20251;-75
2021/05/23 02:10:27;;;;;;;1.97;0.67;;;;;;;7.16;77.36;95320.75;5049159;28;20217;-75
2021/05/23 02:12:53;;;;;;;1.20;0.80;;;;;;;7.15;77.99;95311.34;5051352;28;20287;-75
2021/05/23 02:15:19;;;;;;;0.93;0.60;;;;;;;7.12;76.87;95312.44;5034841;28;20190;-75
2021/05/23 02:17:46;;;;;;;1.07;0.50;;;;;;;7.12;77.59;95309.84;5034884;28;20181;-75
2021/05/23 02:20:15;;;;;;;1.63;0.70;;;;;;;7.05;77.89;95314.72;5050052;28;20178;-75
2021/05/23 02:22:43;;;;;;;3.30;0.80;;;;;;;6.99;78.26;95310.09;5051441;28;20224;-75
2021/05/23 02:25:09;;;;;;;1.03;0.40;;;;;;;6.94;79.00;95301.09;5050259;28;20189;-75
2021/05/23 02:27:37;;;;;;;0.60;0.50;;;;;;;6.81;78.62;95301.34;5051105;28;20212;-75
2021/05/23 02:30:08;;;;;;;2.13;0.60;;;;;;;6.77;78.29;95294.81;5050101;28;20193;-75
2021/05/23 02:32:34;;;;;;;5.43;0.60;;;;;;;6.79;78.76;95300.63;5050671;28;20259;-74
2021/05/23 02:34:59;;;;;;;2.20;0.70;;;;;;;6.76;78.67;95293.97;5051067;28;20181;-75
2021/05/23 02:37:25;;;;;;;0.40;0.40;;;;;;;6.76;78.95;95299.16;5051040;28;20188;-75
2021/05/23 02:39:50;;;;;;;1.17;0.60;;;;;;;6.67;78.89;95299.13;5051011;28;20188;-75
2021/05/23 02:42:15;;;;;;;1.23;0.47;;;;;;;6.70;78.80;95297.06;5049542;28;20213;-75
2021/05/23 02:44:41;;;;;;;1.57;0.90;;;;;;;6.69;78.71;95298.03;5052098;28;20593;-75
2021/05/23 02:47:06;;;;;;;1.37;0.60;;;;;;;6.73;78.68;95288.28;5051973;28;20664;-74
2021/05/23 02:49:31;;;;;;;3.00;0.77;;;;;;;6.68;79.06;95287.84;5050749;28;20239;-75
2021/05/23 02:51:56;;;;;;;1.70;0.60;;;;;;;6.64;79.38;95294.22;5049435;28;20198;-75
2021/05/23 02:54:22;;;;;;;1.23;0.50;;;;;;;6.61;79.50;95300.44;5042402;28;20216;-75
2021/05/23 02:56:47;;;;;;;1.87;0.53;;;;;;;6.61;79.62;95310.75;5050701;28;20552;-75
2021/05/23 02:59:13;;;;;;;1.17;0.60;;;;;;;6.60;79.55;95311.69;5033988;28;20178;-75
2021/05/23 03:01:39;;;;;;;1.97;0.60;;;;;;;6.60;79.94;95303.16;5050277;28;20236;-76
2021/05/23 03:04:04;;;;;;;2.07;0.70;;;;;;;6.60;79.94;95298.00;5032609;28;20189;-75
2021/05/23 03:06:30;;;;;;;1.37;0.60;;;;;;;6.62;79.95;95298.66;5051740;28;20189;-75
2021/05/23 03:08:55;;;;;;;1.80;0.60;;;;;;;6.56;79.77;95301.78;5033884;28;20304;-75
2021/05/23 03:11:20;;;;;;;4.80;0.90;;;;;;;6.58;79.62;95316.19;5050114;28;20190;-75
2021/05/23 03:13:45;;;;;;;2.70;0.40;;;;;;;6.57;79.71;95324.88;5032642;28;20217;-74
2021/05/23 03:16:11;;;;;;;3.60;0.50;;;;;;;6.56;79.53;95330.97;5051452;28;20236;-75
2021/05/23 03:18:36;;;;;;;2.83;0.80;;;;;;;6.54;80.14;95335.47;5050331;28;20193;-74
2021/05/23 03:21:01;;;;;;;2.43;0.60;;;;;;;6.62;79.86;95345.13;5051193;28;20186;-74
2021/05/23 03:23:27;;;;;;;1.77;0.60;;;;;;;6.48;79.66;95343.69;5049136;28;20708;-74
2021/05/23 03:25:52;;;;;;;0.90;0.57;;;;;;;6.44;79.93;95332.81;5050097;28;20192;-74
2021/05/23 03:28:17;;;;;;;3.20;0.50;;;;;;;6.43;79.97;95328.59;5051313;28;20209;-74
2021/05/23 03:30:43;;;;;;;0.83;0.67;;;;;;;6.51;79.68;95330.53;5049895;28;20239;-75
2021/05/23 03:33:09;;;;;;;0.50;0.50;;;;;;;6.52;79.17;95329.59;5049956;28;20216;-76
2021/05/23 03:35:35;;;;;;;0.97;0.67;;;;;;;6.57;79.11;95324.88;5049097;28;20188;-76
2021/05/23 03:38:02;;;;;;;3.07;0.80;;;;;;;6.58;79.15;95330.84;5049766;28;20272;-76
2021/05/23 03:40:29;;;;;;;3.10;0.67;;;;;;;6.49;79.36;95338.41;5049808;28;20557;-75
2021/05/23 03:42:55;;;;;;;1.90;0.70;;;;;;;6.50;79.61;95355.50;5050072;28;20197;-75
2021/05/23 03:45:21;;;;;;;0.70;0.67;;;;;;;6.51;79.38;95370.03;5047990;28;20703;-75
2021/05/23 03:47:46;;;;;;;2.20;0.80;;;;;;;6.58;79.37;95369.56;5049660;28;20684;-76
2021/05/23 03:50:15;;;;;;;1.83;0.87;;;;;;;6.50;79.21;95377.91;5051286;28;20197;-75
2021/05/23 03:52:40;;;;;;;2.60;0.63;;;;;;;6.49;79.36;95377.09;5049731;28;20212;-76
2021/05/23 03:55:07;;;;;;;1.17;0.87;;;;;;;6.52;79.27;95388.91;5032830;28;20178;-75
2021/05/23 03:57:33;;;;;;;1.23;0.50;;;;;;;6.55;79.05;95387.88;5049543;28;20688;-75
2021/05/23 03:59:58;;;;;;;1.40;0.60;;;;;;;6.66;78.54;95400.69;5049837;28;20209;-75
2021/05/23 04:02:23;;;;;;;1.43;0.60;;;;;;;6.62;78.94;95409.63;5049531;28;20597;-75
2021/05/23 04:04:53;;;;;;;1.13;0.60;;;;;;;6.61;79.02;95405.41;5051218;28;20228;-74
2021/05/23 04:07:19;;;;;;;1.63;0.70;;;;;;;6.73;79.39;95412.16;5031658;28;20608;-76
2021/05/23 04:09:48;;;;;;;2.73;0.60;;;;;;;6.85;78.66;95412.88;5051058;28;20645;-75
2021/05/23 04:12:18;;;;;;;2.47;1.10;;;;;;;6.75;78.33;95421.41;5049554;28;20202;-75
2021/05/23 04:14:43;;;;;;;1.77;1.00;;;;;;;6.74;78.80;95426.69;5033508;28;20645;-76
2021/05/23 04:17:09;;;;;;;2.60;0.90;;;;;;;6.72;79.09;95424.25;5048656;28;20181;-75
2021/05/23 04:19:35;;;;;;;1.90;0.83;;;;;;;6.78;79.10;95435.78;5050922;28;20709;-75
2021/05/23 04:22:02;;;;;;;2.73;0.60;;;;;;;6.80;77.76;95436.47;5050681;28;20212;-75
2021/05/23 04:24:27;;;;;;;3.30;0.70;;;;;;;6.84;76.99;95437.88;5050847;28;20189;-74
2021/05/23 04:26:52;;;;;;;1.00;0.70;;;;;;;6.93;77.36;95442.28;5050826;28;20201;-75
2021/05/23 04:29:18;;;;;;;1.20;0.60;;;;;;;6.99;77.42;95439.19;5047487;28;20198;-75
2021/05/23 04:31:43;;;;;;;1.67;0.70;;;;;;;7.07;76.71;95431.63;5049235;28;20186;-74
2021/05/23 04:34:08;;;;;;;3.40;1.03;;;;;;;7.11;76.64;95427.00;5049592;28;20604;-75
2021/05/23 04:36:34;;;;;;;1.60;0.70;;;;;;;7.15;76.34;95436.13;5049600;28;20189;-75
2021/05/23 04:38:59;;;;;;;1.77;0.70;;;;;;;7.11;76.57;95432.16;5049762;28;20576;-76
2021/05/23 04:41:24;;;;;;;2.13;0.77;;;;;;;7.21;76.32;95440.78;5050415;28;20188;-75
2021/05/23 04:43:50;;;;;;;2.07;0.70;;;;;;;7.31;75.89;95446.78;5050682;28;20229;-75
2021/05/23 04:46:15;;;;;;;1.30;1.20;;;;;;;7.25;76.10;95449.09;5049414;28;20178;-75
2021/05/23 04:48:40;;;;;;;1.93;0.60;;;;;;;7.42;75.33;95453.66;5048972;28;20735;-75
2021/05/23 04:51:05;;;;;;;1.87;0.70;;;;;;;7.43;75.66;95457.06;5035993;28;20235;-75
2021/05/23 04:53:31;;;;;;;0.77;0.60;;;;;;;7.46;75.35;95447.25;5054379;28;20221;-75
2021/05/23 04:55:56;;;;;;;1.67;0.80;;;;;;;7.46;75.43;95460.19;5036273;28;20272;-74
2021/05/23 04:58:21;;;;;;;1.00;0.80;;;;;;;7.42;75.85;95458.81;5053215;28;20240;-76
2021/05/23 05:00:47;;;;;;;2.83;0.90;;;;;;;7.35;75.64;95465.44;5053678;28;20556;-75
2021/05/23 05:03:12;;;;;;;1.63;0.87;;;;;;;7.29;76.60;95471.13;5054092;28;20583;-75
2021/05/23 05:05:37;;;;;;;3.13;0.90;;;;;;;7.23;76.91;95476.78;5052815;28;20231;-76
2021/05/23 05:08:03;;;;;;;2.87;0.87;;;;;;;7.25;77.15;95478.34;5053151;28;20268;-76
2021/05/23 05:10:28;;;;;;;1.77;0.80;;;;;;;7.25;77.28;95485.25;5052307;28;20196;-76
2021/05/23 05:12:53;;;;;;;3.93;1.07;;;;;;;7.30;77.42;95491.66;5052584;28;20201;-76
2021/05/23 05:15:19;;;;;;;1.70;0.90;;;;;;;7.37;77.28;95491.97;5052485;28;20185;-76
2021/05/23 05:17:44;;;;;;;1.10;0.80;;;;;;;7.29;77.32;95495.19;5053858;28;20241;-76
2021/05/23 05:20:10;;;;;;;2.10;0.87;;;;;;;7.30;77.60;95493.44;5052659;28;20642;-76
2021/05/23 05:22:36;;;;;;;1.57;0.90;;;;;;;7.37;77.83;95494.56;5035489;28;20198;-76
2021/05/23 05:25:03;;;;;;;1.57;0.97;;;;;;;7.51;76.75;95508.88;5052489;28;20309;-76
2021/05/23 05:27:28;;;;;;;3.30;0.80;;;;;;;7.65;76.41;95504.19;5052258;28;20201;-76
2021/05/23 05:29:54;;;;;;;2.00;0.90;;;;;;;7.55;76.30;95503.34;5051319;28;20205;-76
2021/05/23 05:32:19;;;;;;;1.13;0.67;;;;;;;7.44;76.40;95508.59;5085351;28;20193;-76
2021/05/23 05:34:44;;;;;;;1.67;0.83;;;;;;;7.43;76.67;95514.72;5052183;28;20298;-76
2021/05/23 05:37:10;;;;;;;1.90;0.80;;;;;;;7.51;77.57;95516.63;5035291;28;20174;-76
2021/05/23 05:39:35;;;;;;;3.47;0.90;;;;;;;7.52;77.56;95518.28;5035613;28;20182;-75
2021/05/23 05:42:01;;;;;;;2.50;0.70;;;;;;;7.40;77.00;95520.13;5051832;28;20216;-75
2021/05/23 05:44:26;;;;;;;1.87;0.90;;;;;;;7.32;77.13;95522.53;5052110;28;20205;-75
2021/05/23 05:46:52;;;;;;;0.90;0.63;;;;;;;7.30;76.97;95532.16;5035115;28;20202;-74
2021/05/23 05:49:17;;;;;;;2.00;0.70;;;;;;;7.29;77.22;95535.72;5053205;28;20661;-74
2021/05/23 05:51:43;;;;;;;2.30;0.70;;;;;;;7.26;77.55;95528.22;5050595;28;20627;-75
2021/05/23 05:54:08;;;;;;;1.47;0.60;;;;;;;7.30;76.75;95537.34;5051610;28;20269;-74
2021/05/23 05:56:34;;;;;;;4.53;0.90;;;;;;;7.26;76.75;95541.13;5052907;28;20185;-74
2021/05/23 05:58:59;;;;;;;3.63;0.90;;;;;;;7.24;76.84;95550.75;5052927;28;20178;-74
2021/05/23 06:01:25;;;;;;;2.53;0.97;;;;;;;7.31;76.42;95547.53;5051732;28;20618;-75
2021/05/23 06:03:50;;;;;;;1.60;0.87;;;;;;;7.51;75.88;95553.66;5034709;28;20214;-75
2021/05/23 06:06:15;;;;;;;2.83;1.20;;;;;;;7.51;75.21;95557.97;5051665;28;20228;-75
2021/05/23 06:08:41;;;;;;;2.70;1.10;;;;;;;7.47;74.88;95557.41;5052737;28;20206;-75
2021/05/23 06:11:06;;;;;;;0.90;0.70;;;;;;;7.47;75.16;95554.84;5051320;28;20295;-75
2021/05/23 06:13:31;;;;;;;1.43;0.80;;;;;;;7.52;74.77;95554.47;5047283;28;20700;-75
2021/05/23 06:15:57;;;;;;;0.97;0.80;;;;;;;7.64;73.61;95563.75;5041012;28;20195;-75
2021/05/23 06:18:26;;;;;;;3.33;1.00;;;;;;;7.70;74.63;95567.59;5029503;28;20182;-75
2021/05/23 06:20:51;;;;;;;1.70;0.60;;;;;;;7.94;74.03;95579.25;5014028;28;20187;-75
2021/05/23 06:23:17;;;;;;;1.90;0.70;;;;;;;8.22;73.71;95574.31;5035431;28;20220;-75
2021/05/23 06:25:42;;;;;;;2.63;1.10;;;;;;;8.11;73.44;95572.63;5051140;28;20182;-74
2021/05/23 06:28:07;;;;;;;1.77;0.70;;;;;;;8.15;72.89;95575.78;5052282;28;20205;-74
2021/05/23 06:30:33;;;;;;;2.07;0.70;;;;;;;8.13;72.72;95581.09;5050805;28;20196;-74
2021/05/23 06:32:58;;;;;;;3.10;0.73;;;;;;;8.42;72.64;95581.19;5050937;28;20202;-75
2021/05/23 06:35:24;;;;;;;2.93;0.80;;;;;;;8.38;71.62;95585.00;5048941;28;20192;-75
2021/05/23 06:37:49;;;;;;;4.33;1.00;;;;;;;8.58;71.88;95585.03;5050938;28;20169;-75
2021/05/23 06:40:15;;;;;;;1.50;0.80;;;;;;;8.56;70.73;95584.34;5050849;28;20257;-75
2021/05/23 06:42:40;;;;;;;3.23;1.20;;;;;;;9.64;68.50;95579.78;5050627;28;20577;-75
2021/05/23 06:45:06;;;;;;;2.97;0.80;;;;;;;11.30;62.87;95579.47;5049151;28;20197;-74
2021/05/23 06:47:31;;;;;;;2.97;0.63;;;;;;;11.02;63.14;95588.34;5050611;28;20197;-76
2021/05/23 06:49:57;;;;;;;1.57;0.77;;;;;;;10.48;64.26;95596.09;5050074;28;20532;-77
2021/05/23 06:52:22;;;;;;;2.13;0.67;;;;;;;9.80;65.56;95599.91;5049975;28;20209;-77
2021/05/23 06:54:47;;;;;;;4.53;0.87;;;;;;;9.60;67.69;95615.53;5049431;28;20220;-77
2021/05/23 06:57:13;;;;;;;3.37;0.90;;;;;;;9.06;70.18;95622.13;5050724;28;20607;-77
2021/05/23 06:59:38;;;;;;;2.10;0.60;;;;;;;8.42;70.75;95607.06;5033446;28;20684;-74
2021/05/23 07:02:03;;;;;;;1.27;0.60;;;;;;;7.84;72.89;95604.25;5033656;28;20201;-75
2021/05/23 07:04:28;;;;;;;1.70;0.60;;;;;;;7.81;73.71;95625.19;5051802;28;20545;-74
2021/05/23 07:06:54;;;;;;;2.63;0.83;;;;;;;7.81;75.44;95624.38;5050193;28;20638;-75
2021/05/23 07:09:19;;;;;;;1.37;1.10;;;;;;;7.73;75.90;95634.53;5050317;28;20213;-74
2021/05/23 07:11:44;;;;;;;2.33;0.90;;;;;;;7.35;78.07;95631.59;5049439;28;20633;-74
2021/05/23 07:14:10;;;;;;;0.93;0.43;;;;;;;7.01;77.49;95618.03;5050518;28;20177;-75
2021/05/23 07:16:35;;;;;;;2.40;0.50;;;;;;;6.94;76.16;95609.13;5048370;28;20221;-75
2021/05/23 07:19:01;;;;;;;2.20;0.50;;;;;;;7.26;76.25;95622.03;5051093;28;20182;-74
2021/05/23 07:21:26;;;;;;;0.70;0.50;;;;;;;7.48;75.72;95617.66;5049500;28;20681;-75
2021/05/23 07:23:51;;;;;;;0.93;0.50;;;;;;;8.62;71.31;95613.09;5049674;28;20271;-74
2021/05/23 07:26:18;;;;;;;1.73;0.60;;;;;;;10.26;65.14;95616.44;5049823;28;20205;-74
2021/05/23 07:28:43;;;;;;;1.57;0.67;;;;;;;11.64;61.71;95615.97;5031864;28;20209;-74
2021/05/23 07:31:08;;;;;;;1.07;0.60;;;;;;;12.29;58.70;95619.94;5049697;28;20628;-74
2021/05/23 07:33:34;;;;;;;1.50;0.30;;;;;;;13.07;54.61;95617.06;5050038;28;20202;-73
2021/05/23 07:35:59;;;;;;;1.07;0.43;;;;;;;13.57;54.48;95619.56;5050402;28;20562;-73
2021/05/23 07:38:25;;;;;;;0.97;0.50;;;;;;;13.90;54.59;95622.94;5032025;28;20209;-74
2021/05/23 07:40:50;;;;;;;1.10;0.50;;;;;;;14.37;52.68;95616.94;5032887;28;20548;-74
2021/05/23 07:43:16;;;;;;;0.83;0.40;;;;;;;13.93;52.33;95616.56;5033104;28;20419;-73
2021/05/23 07:45:41;;;;;;;1.47;0.70;;;;;;;14.44;52.70;95626.53;5049892;28;20189;-74
2021/05/23 07:48:06;;;;;;;2.53;0.77;;;;;;;13.91;51.66;95626.38;5031762;28;20284;-74
2021/05/23 07:50:32;;;;;;;3.40;0.73;;;;;;;13.99;54.11;95632.41;5048193;28;20201;-74
2021/05/23 07:52:58;;;;;;;0.80;0.50;;;;;;;13.52;56.56;95640.13;5032970;28;20218;-73
2021/05/23 07:55:23;;;;;;;3.37;0.50;;;;;;;13.04;58.07;95633.84;5051158;28;20256;-74
2021/05/23 07:57:48;;;;;;;1.73;0.33;;;;;;;13.03;58.02;95637.44;5049995;28;20174;-74
2021/05/23 08:00:15;;;;;;;4.93;1.13;;;;;;;12.94;56.36;95641.81;5048876;28;20264;-75
2021/05/23 08:02:40;;;;;;;1.57;0.97;;;;;;;13.27;55.43;95645.31;5049498;28;20201;-74
2021/05/23 08:05:06;;;;;;;2.23;1.00;;;;;;;12.54;57.90;95654.69;5049758;28;20197;-74
2021/05/23 08:07:32;;;;;;;2.47;0.70;;;;;;;12.86;57.90;95652.22;5050955;28;20205;-74
2021/05/23 08:09:57;;;;;;;2.87;0.70;;;;;;;12.92;57.64;95651.59;5048823;28;20680;-74
2021/05/23 08:12:22;;;;;;;2.27;1.30;;;;;;;12.24;58.52;95656.84;5032698;28;20190;-74
2021/05/23 08:14:48;;;;;;;2.60;0.60;;;;;;;12.68;56.12;95641.91;5049793;28;20174;-75
2021/05/23 08:17:14;;;;;;;1.23;0.70;;;;;;;13.01;57.49;95660.25;5049884;28;20227;-74
2021/05/23 08:19:39;;;;;;;1.37;0.50;;;;;;;12.93;56.39;95653.22;5049666;28;20231;-74
2021/05/23 08:22:04;;;;;;;2.07;0.87;;;;;;;13.08;54.88;95656.03;5047290;28;20209;-73
2021/05/23 08:24:31;;;;;;;4.97;1.53;;;;;;;12.08;55.12;95654.97;5053320;28;20193;-74
2021/05/23 08:26:57;;;;;;;2.33;0.60;;;;;;;12.42;56.86;95659.38;5053521;28;20347;-75
2021/05/23 08:29:24;;;;;;;1.63;0.47;;;;;;;12.07;58.89;95658.53;5053502;28;20282;-74
2021/05/23 08:31:49;;;;;;;3.50;1.00;;;;;;;11.80;58.31;95663.91;5052299;28;20182;-73
2021/05/23 08:34:14;;;;;;;2.63;0.80;;;;;;;12.48;58.32;95663.97;5053239;28;20722;-74
2021/05/23 08:36:39;;;;;;;1.70;0.63;;;;;;;12.77;56.52;95656.59;5054629;28;20178;-74
2021/05/23 08:39:05;;;;;;;2.97;0.60;;;;;;;12.89;55.62;95656.28;5036955;28;20178;-74
2021/05/23 08:41:30;;;;;;;1.47;0.63;;;;;;;12.56;57.32;95656.19;5035417;28;20464;-74
2021/05/23 08:43:56;;;;;;;2.20;0.73;;;;;;;13.23;56.59;95658.81;5051666;28;20220;-74
2021/05/23 08:46:21;;;;;;;1.73;0.70;;;;;;;12.92;56.27;95663.81;5053182;28;20182;-74
2021/05/23 08:48:47;;;;;;;1.37;0.70;;;;;;;12.57;55.43;95663.03;5054347;28;20202;-74
2021/05/23 08:51:13;;;;;;;3.33;0.70;;;;;;;12.15;56.90;95666.41;5052754;28;20177;-74
2021/05/23 08:53:39;;;;;;;3.30;0.80;;;;;;;12.49;56.32;95668.22;5053402;28;20217;-74
2021/05/23 08:56:04;;;;;;;3.33;0.70;;;;;;;12.56;56.79;95666.63;5052934;28;20278;-73
2021/05/23 08:58:30;;;;;;;1.80;0.50;;;;;;;12.69;55.58;95663.56;5053238;28;20630;-73
2021/05/23 09:00:56;;;;;;;3.20;1.00;;;;;;;12.84;56.41;95663.78;5052754;28;20657;-75
2021/05/23 09:03:21;;;;;;;2.87;0.80;;;;;;;12.68;55.98;95667.13;5035027;28;20255;-74
2021/05/23 09:05:50;;;;;;;1.97;0.80;;;;;;;13.16;56.03;95668.22;5053973;28;20186;-74
2021/05/23 09:08:21;;;;;;;4.73;0.77;;;;;;;13.31;53.83;95672.69;5054041;28;20194;-74
2021/05/23 09:10:49;;;;;;;1.57;0.70;;;;;;;13.01;53.27;95661.06;5052619;28;20552;-74
2021/05/23 09:13:37;;;;;;;1.00;0.60;;;;;;;13.10;53.41;95669.72;5036110;28;20428;-75
2021/05/23 09:16:07;;;;;;;0.97;0.50;;;;;;;12.76;53.48;95675.81;5052318;28;20186;-75
2021/05/23 09:18:48;;;;;;;3.27;0.80;;;;;;;11.89;55.62;95666.41;5036163;28;20277;-75
2021/05/23 09:21:35;;;;;;;2.00;0.70;;;;;;;11.50;57.95;95680.72;5052449;28;20232;-75
2021/05/23 09:24:05;;;;;;;1.37;0.60;;;;;;;11.01;61.12;95688.88;5034738;28;20247;-75
2021/05/23 09:26:33;;;;;;;3.87;0.80;;;;;;;10.88;62.42;95685.81;5052138;28;20189;-74
2021/05/23 09:29:19;;;;;;;2.93;0.70;;;;;;;11.09;63.29;95692.53;5053507;28;20206;-74
2021/05/23 09:31:48;;;;;;;2.83;0.73;;;;;;;11.46;64.03;95698.38;5052132;28;20546;-74
2021/05/23 09:34:22;;;;;;;2.87;1.23;;;;;;;12.05;64.25;95686.53;5052837;28;20178;-74
2021/05/23 09:36:48;;;;;;;2.20;1.10;;;;;;;12.41;61.69;95699.41;5050832;28;20182;-76
2021/05/23 09:39:14;;;;;;;2.47;0.60;;;;;;;12.46;61.05;95692.78;5058189;28;20185;-77
2021/05/23 09:41:40;;;;;;;1.77;0.83;;;;;;;12.16;60.20;95696.66;5032015;28;20642;-74
2021/05/23 09:44:25;;;;;;;3.07;0.80;;;;;;;11.80;59.34;95698.53;5051424;28;20202;-74
2021/05/23 09:46:55;;;;;;;2.00;0.90;;;;;;;11.86;57.84;95703.16;5050735;28;20182;-73
2021/05/23 09:49:21;;;;;;;2.20;0.70;;;;;;;11.52;58.22;95692.59;5035325;28;20589;-73
2021/05/23 09:51:54;;;;;;;2.30;0.70;;;;;;;11.49;58.43;95694.69;5051478;28;20197;-74
2021/05/23 09:54:20;;;;;;;2.03;0.60;;;;;;;11.91;57.19;95705.28;5053308;28;20174;-73
2021/05/23 09:56:45;;;;;;;1.50;0.60;;;;;;;12.25;56.51;95715.75;5052315;28;20182;-73
2021/05/23 09:59:21;;;;;;;0.60;0.47;;;;;;;11.95;53.41;95716.22;5085254;28;20193;-73
2021/05/23 10:01:47;;;;;;;3.53;0.70;;;;;;;12.39;54.60;95717.00;5051282;28;20177;-73
2021/05/23 10:04:21;;;;;;;1.47;0.60;;;;;;;12.53;52.80;95721.59;5050868;28;20185;-74
2021/05/23 10:06:57;;;;;;;1.67;0.60;;;;;;;12.50;52.97;95721.13;5049374;28;20178;-74
2021/05/23 10:09:24;;;;;;;1.07;0.50;;;;;;;12.49;53.58;95722.91;5079149;28;20189;-74
2021/05/23 10:11:49;;;;;;;1.80;0.57;;;;;;;12.51;54.00;95731.38;5052239;28;20189;-75
2021/05/23 10:14:14;;;;;;;1.03;0.50;;;;;;;12.45;52.27;95727.59;5052871;28;20279;-74
2021/05/23 10:16:40;;;;;;;1.67;0.60;;;;;;;12.76;53.34;95722.72;5050204;28;20209;-75
2021/05/23 10:19:06;;;;;;;1.27;0.40;;;;;;;13.38;52.25;95717.22;5039408;28;20189;-74
2021/05/23 10:21:31;;;;;;;0.57;0.50;;;;;;;13.82;51.63;95717.75;5033840;28;20182;-75
2021/05/23 10:23:58;;;;;;;0.87;0.40;;;;;;;13.76;49.86;95717.56;5049313;28;20225;-75
2021/05/23 10:26:25;;;;;;;1.43;0.70;;;;;;;13.81;50.32;95720.53;5049346;28;20223;-74
2021/05/23 10:28:51;;;;;;;2.20;0.50;;;;;;;14.00;50.86;95719.38;5027898;28;20290;-74
2021/05/23 10:31:33;;;;;;;1.00;0.60;;;;;;;14.04;50.78;95707.59;5031311;28;20302;-75
2021/05/23 10:33:59;;;;;;;2.83;0.60;;;;;;;13.60;51.56;95710.53;5049207;28;20194;-74
2021/05/23 10:36:32;;;;;;;1.73;0.60;;;;;;;14.14;51.54;95716.91;5049273;28;20181;-75
2021/05/23 10:38:59;;;;;;;2.23;0.63;;;;;;;13.96;49.29;95708.44;5046307;28;20182;-75
2021/05/23 10:41:24;;;;;;;2.07;0.60;;;;;;;13.93;50.24;95705.34;5038876;28;20181;-75
2021/05/23 10:43:58;;;;;;;2.30;0.53;;;;;;;13.62;49.61;95703.38;5080733;28;20573;-74
2021/05/23 10:46:24;;;;;;;1.63;1.00;;;;;;;12.77;49.03;95716.53;5030219;28;20178;-74
2021/05/23 10:49:00;;;;;;;1.73;0.70;;;;;;;12.84;51.20;95719.31;5014498;28;20207;-75
2021/05/23 10:51:27;;;;;;;1.90;0.70;;;;;;;12.18;52.38;95731.16;5047349;28;20219;-73
2021/05/23 10:53:53;;;;;;;1.43;0.70;;;;;;;12.24;54.14;95721.13;5050666;28;20202;-75
2021/05/23 10:56:29;;;;;;;3.20;0.70;;;;;;;12.37;54.77;95726.75;5051080;28;20190;-74
2021/05/23 10:58:57;;;;;;;2.93;0.60;;;;;;;13.16;54.75;95726.41;5051258;28;20220;-74
2021/05/23 11:01:45;;;;;;;1.67;0.50;;;;;;;13.17;52.93;95724.66;5050711;28;20181;-74
2021/05/23 11:04:12;;;;;;;0.87;0.70;;;;;;;13.53;52.09;95723.44;5052067;28;20182;-74
2021/05/23 11:06:38;;;;;;;3.90;0.97;;;;;;;14.05;51.17;95724.94;5050213;28;20689;-73
2021/05/23 11:09:09;;;;;;;1.40;0.43;;;;;;;14.16;50.38;95719.34;5049713;28;20283;-75
2021/05/23 11:11:35;;;;;;;1.37;0.67;;;;;;;14.92;49.50;95718.03;5049303;28;20205;-74
2021/05/23 11:14:23;;;;;;;1.53;0.60;;;;;;;14.50;49.00;95728.81;5033843;28;20627;-74
2021/05/23 11:16:53;;;;;;;1.77;0.70;;;;;;;14.46;48.67;95720.47;5050433;28;20522;-74
2021/05/23 11:19:20;;;;;;;1.80;0.80;;;;;;;13.97;48.01;95717.09;5052014;28;20201;-74
2021/05/23 11:21:48;;;;;;;2.73;0.63;;;;;;;14.06;47.90;95713.50;5049442;28;20196;-75
2021/05/23 11:24:14;;;;;;;0.80;0.70;;;;;;;14.38;46.49;95713.44;5050399;28;20174;-76
2021/05/23 11:26:40;;;;;;;1.90;0.53;;;;;;;14.99;45.44;95711.94;5030707;28;20606;-74
2021/05/23 11:29:06;;;;;;;3.47;0.77;;;;;;;15.17;45.12;95705.66;5030471;28;20233;-74
2021/05/23 11:31:36;;;;;;;4.87;0.77;;;;;;;15.09;42.79;95698.66;5033298;28;20182;-75
2021/05/23 11:34:03;;;;;;;1.90;0.67;;;;;;;14.70;44.64;95716.97;5046002;28;20266;-74
2021/05/23 11:36:34;;;;;;;1.77;0.70;;;;;;;14.75;45.44;95701.56;5050276;28;20182;-74
2021/05/23 11:39:04;;;;;;;2.30;0.50;;;;;;;14.70;43.51;95709.94;5050241;28;20174;-74